createdAt,value
2019-04-29T00:00:07.034Z,7.50
2019-04-29T00:02:36.520Z,7.92
2019-04-29T00:05:06.963Z,8.33
2019-04-29T00:07:35.950Z,8.55
2019-04-29T00:10:07.302Z,8.38
2019-04-29T00:12:36.112Z,8.48
2019-04-29T00:15:08.125Z,8.25
2019-04-29T00:17:38.440Z,8.35
2019-04-29T00:20:09.361Z,8.03
2019-04-29T00:22:38.178Z,8.23
2019-04-29T00:25:06.986Z,8.55
2019-04-29T00:27:35.666Z,8.40
2019-04-29T00:30:08.492Z,8.35
2019-04-29T00:32:38.115Z,8.75
2019-04-29T00:35:07.383Z,9.03
2019-04-29T00:37:43.484Z,8.68
2019-04-29T00:40:14.005Z,7.75
2019-04-29T00:42:50.587Z,8.75
2019-04-29T00:45:19.345Z,8.93
2019-04-29T00:47:48.031Z,8.75
2019-04-29T00:50:16.732Z,8.78
2019-04-29T00:52:45.408Z,9.70
2019-04-29T00:55:15.908Z,8.85
2019-04-29T00:57:44.591Z,8.20
2019-04-29T01:00:15.207Z,8.98
2019-04-29T01:02:43.883Z,8.65
2019-04-29T01:05:12.855Z,8.73
2019-04-29T01:07:41.579Z,8.58
2019-04-29T01:10:10.715Z,8.63
2019-04-29T01:12:39.321Z,8.33
2019-04-29T01:15:08.242Z,8.43
2019-04-29T01:17:36.996Z,8.18
2019-04-29T01:20:08.269Z,7.42
2019-04-29T01:22:36.878Z,7.92
2019-04-29T01:25:06.908Z,8.80
2019-04-29T01:27:52.605Z,9.03
2019-04-29T01:33:08.361Z,8.40
2019-04-29T01:35:37.383Z,7.80
2019-04-29T01:38:06.140Z,8.10
2019-04-29T01:40:36.397Z,8.35
2019-04-29T01:43:05.034Z,9.35
2019-04-29T01:45:35.790Z,8.00
2019-04-29T01:48:04.588Z,8.80
2019-04-29T01:50:33.350Z,9.53
2019-04-29T01:53:01.990Z,10.38
2019-04-29T01:55:30.597Z,9.65
2019-04-29T01:57:59.398Z,9.03
2019-04-29T02:00:28.127Z,8.88
2019-04-29T02:02:56.769Z,8.60
2019-04-29T02:05:25.442Z,9.15
2019-04-29T02:07:54.140Z,9.10
2019-04-29T02:10:30.283Z,9.45
2019-04-29T02:12:59.052Z,10.68
2019-04-29T02:15:27.653Z,10.38
2019-04-29T02:17:56.407Z,11.18
2019-04-29T02:20:25.116Z,10.08
2019-04-29T02:23:01.773Z,10.00
2019-04-29T02:25:34.848Z,9.48
2019-04-29T02:28:03.524Z,9.73
2019-04-29T02:30:35.229Z,8.68
2019-04-29T02:33:03.916Z,9.50
2019-04-29T02:35:32.514Z,10.70
2019-04-29T02:38:01.214Z,10.53
2019-04-29T02:40:31.538Z,10.15
2019-04-29T02:43:01.864Z,11.35
2019-04-29T02:45:32.252Z,10.98
2019-04-29T02:48:00.944Z,10.90
2019-04-29T02:50:29.633Z,12.10
2019-04-29T02:52:58.430Z,12.35
2019-04-29T02:55:28.853Z,12.13
2019-04-29T02:58:01.887Z,13.20
2019-04-29T03:00:48.572Z,11.45
2019-04-29T03:03:31.270Z,12.25
2019-04-29T03:06:01.647Z,12.13
2019-04-29T03:08:31.455Z,11.40
2019-04-29T03:11:00.246Z,9.58
2019-04-29T03:13:28.974Z,9.13
2019-04-29T03:15:57.801Z,9.28
2019-04-29T03:18:28.245Z,10.23
2019-04-29T03:21:11.039Z,9.45
2019-04-29T03:23:39.811Z,9.65
2019-04-29T03:26:08.562Z,9.20
2019-04-29T03:28:37.254Z,9.43
2019-04-29T03:31:06.101Z,9.88
2019-04-29T03:33:34.894Z,10.28
2019-04-29T03:36:03.577Z,9.63
2019-04-29T03:38:32.250Z,9.88
2019-04-29T03:41:00.930Z,9.75
2019-04-29T03:43:29.629Z,9.93
2019-04-29T03:45:58.305Z,10.82
2019-04-29T03:48:27.048Z,10.38
2019-04-29T03:50:55.754Z,10.13
2019-04-29T03:53:27.989Z,10.23
2019-04-29T03:55:58.947Z,9.70
2019-04-29T03:58:27.623Z,9.35
2019-04-29T04:01:00.728Z,10.43
2019-04-29T04:03:33.494Z,10.20
2019-04-29T04:06:03.828Z,9.70
2019-04-29T04:08:34.146Z,9.33
2019-04-29T04:11:02.982Z,10.58
2019-04-29T04:13:31.607Z,10.70
2019-04-29T04:16:00.596Z,11.83
2019-04-29T04:18:30.961Z,10.50
2019-04-29T04:20:59.770Z,15.75
2019-04-29T04:23:28.413Z,14.38
2019-04-29T04:25:57.218Z,15.08
2019-04-29T04:28:25.943Z,14.68
2019-04-29T04:30:54.611Z,15.30
2019-04-29T04:33:23.271Z,13.45
2019-04-29T04:35:52.952Z,11.10
2019-04-29T04:38:21.556Z,11.38
2019-04-29T04:41:00.890Z,10.88
2019-04-29T04:43:29.639Z,10.40
2019-04-29T04:45:58.330Z,10.30
2019-04-29T04:48:26.960Z,10.40
2019-04-29T04:50:55.677Z,11.85
2019-04-29T04:53:24.318Z,11.10
2019-04-29T04:55:54.578Z,9.78
2019-04-29T04:58:23.250Z,9.55
2019-04-29T05:00:51.888Z,9.78
2019-04-29T05:03:20.552Z,11.35
2019-04-29T05:05:49.237Z,16.00
2019-04-29T05:08:17.848Z,12.30
2019-04-29T05:10:46.633Z,13.45
2019-04-29T05:13:27.330Z,13.98
2019-04-29T05:15:46.311Z,11.80
2019-04-29T05:18:15.024Z,9.95
2019-04-29T05:20:43.632Z,10.28
2019-04-29T05:23:12.267Z,9.20
2019-04-29T05:25:40.997Z,11.10
2019-04-29T05:28:09.673Z,11.18
2019-04-29T05:30:38.342Z,10.80
2019-04-29T05:33:07.027Z,11.50
2019-04-29T05:35:40.119Z,10.60
2019-04-29T05:38:11.733Z,9.60
2019-04-29T05:40:44.744Z,11.57
2019-04-29T05:43:14.997Z,9.53
2019-04-29T05:45:48.322Z,9.05
2019-04-29T05:48:18.706Z,8.30
2019-04-29T05:50:52.145Z,9.95
2019-04-29T05:53:23.505Z,10.20
2019-04-29T05:55:52.645Z,9.60
2019-04-29T05:58:21.502Z,9.70
2019-04-29T06:00:51.822Z,9.95
2019-04-29T06:03:20.529Z,8.68
2019-04-29T06:05:50.360Z,9.90
2019-04-29T06:08:18.992Z,9.38
2019-04-29T06:10:47.725Z,10.08
2019-04-29T06:13:16.338Z,11.05
2019-04-29T06:15:44.969Z,9.98
2019-04-29T06:18:13.816Z,9.53
2019-04-29T06:20:42.514Z,9.55
2019-04-29T06:23:11.192Z,9.50
2019-04-29T06:25:39.898Z,10.40
2019-04-29T06:28:08.799Z,8.28
2019-04-29T06:30:40.451Z,9.20
2019-04-29T06:33:07.976Z,8.63
2019-04-29T06:35:36.690Z,7.60
2019-04-29T06:38:05.430Z,8.50
2019-04-29T06:40:35.374Z,8.25
2019-04-29T06:43:04.826Z,7.75
2019-04-29T06:45:33.581Z,6.60
2019-04-29T06:48:02.317Z,7.17
2019-04-29T06:50:30.950Z,7.78
2019-04-29T06:52:59.553Z,9.18
2019-04-29T06:55:28.287Z,8.80
2019-04-29T06:57:57.999Z,14.28
2019-04-29T07:00:26.669Z,8.85
2019-04-29T07:02:55.286Z,8.08
2019-04-29T07:05:24.102Z,8.58
2019-04-29T07:07:52.709Z,8.50
2019-04-29T07:10:26.723Z,8.38
2019-04-29T07:12:51.893Z,9.18
2019-04-29T07:15:20.628Z,9.13
2019-04-29T07:17:49.417Z,8.83
2019-04-29T07:20:18.171Z,10.63
2019-04-29T07:22:46.936Z,9.10
2019-04-29T07:25:15.731Z,9.38
2019-04-29T07:27:44.683Z,8.28
2019-04-29T07:30:13.818Z,8.95
2019-04-29T07:32:46.972Z,8.85
2019-04-29T07:35:12.969Z,12.15
2019-04-29T07:37:41.605Z,11.60
2019-04-29T07:40:10.774Z,8.53
2019-04-29T07:42:39.414Z,8.28
2019-04-29T07:45:28.256Z,8.88
2019-04-29T07:48:01.555Z,7.87
2019-04-29T07:50:28.561Z,7.55
2019-04-29T07:52:57.463Z,7.95
2019-04-29T07:55:30.647Z,7.67
2019-04-29T07:57:56.539Z,8.30
2019-04-29T08:00:34.377Z,7.55
2019-04-29T08:03:05.615Z,8.23
2019-04-29T08:05:34.402Z,19.30
2019-04-29T08:08:03.445Z,16.95
2019-04-29T08:10:32.351Z,9.80
2019-04-29T08:13:01.076Z,9.00
2019-04-29T08:15:31.819Z,8.68
2019-04-29T08:18:06.620Z,9.18
2019-04-29T08:20:30.671Z,79.30
2019-04-29T08:23:02.662Z,17.85
2019-04-29T08:25:29.799Z,30.48
2019-04-29T08:27:58.595Z,11.33
2019-04-29T08:30:27.320Z,11.48
2019-04-29T08:32:55.997Z,11.20
2019-04-29T08:35:24.681Z,10.95
2019-04-29T08:37:53.420Z,13.50
2019-04-29T08:40:22.127Z,12.28
2019-04-29T08:43:09.028Z,10.88
2019-04-29T08:45:57.567Z,10.13
2019-04-29T08:48:26.400Z,11.85
2019-04-29T08:50:55.040Z,13.10
2019-04-29T08:53:23.985Z,12.88
2019-04-29T08:55:52.750Z,13.93
2019-04-29T08:58:22.588Z,12.33
2019-04-29T09:00:55.417Z,11.63
2019-04-29T09:03:23.390Z,13.60
2019-04-29T09:06:05.106Z,11.97
2019-04-29T09:08:23.881Z,14.53
2019-04-29T09:10:52.680Z,15.03
2019-04-29T09:13:21.354Z,15.78
2019-04-29T09:15:50.009Z,19.57
2019-04-29T09:18:18.854Z,17.98
2019-04-29T09:20:47.535Z,19.40
2019-04-29T09:23:20.824Z,31.05
2019-04-29T09:26:03.491Z,20.75
2019-04-29T09:28:32.216Z,20.92
2019-04-29T09:31:01.025Z,22.82
2019-04-29T09:33:29.700Z,22.75
2019-04-29T09:35:58.351Z,21.97
2019-04-29T09:38:27.070Z,22.45
2019-04-29T09:41:14.089Z,19.82
2019-04-29T09:43:47.404Z,20.68
2019-04-29T09:46:29.942Z,20.95
2019-04-29T09:48:57.593Z,20.30
2019-04-29T09:51:27.939Z,21.20
2019-04-29T09:53:56.650Z,21.42
2019-04-29T09:56:25.356Z,20.23
2019-04-29T09:58:55.686Z,20.55
2019-04-29T10:01:25.968Z,21.35
2019-04-29T10:03:58.865Z,22.00
2019-04-29T10:06:32.190Z,22.50
2019-04-29T10:09:00.875Z,22.20
2019-04-29T10:11:29.669Z,21.17
2019-04-29T10:13:58.380Z,20.77
2019-04-29T10:16:45.347Z,21.02
2019-04-29T10:19:24.600Z,18.55
2019-04-29T10:21:53.317Z,17.85
2019-04-29T10:24:22.077Z,15.23
2019-04-29T10:26:51.001Z,17.05
2019-04-29T10:29:21.253Z,16.70
2019-04-29T10:31:50.010Z,18.77
2019-04-29T10:34:19.195Z,21.35
2019-04-29T10:36:52.300Z,18.48
2019-04-29T10:39:33.613Z,20.00
2019-04-29T10:42:04.016Z,18.17
2019-04-29T10:44:37.559Z,17.60
2019-04-29T10:47:16.304Z,16.07
2019-04-29T10:49:49.774Z,15.50
2019-04-29T10:52:18.758Z,15.10
2019-04-29T10:54:51.600Z,20.00
2019-04-29T10:57:20.090Z,15.43
2019-04-29T10:59:53.370Z,15.75
2019-04-29T11:02:30.023Z,16.85
2019-04-29T11:05:13.476Z,16.40
2019-04-29T11:07:43.986Z,15.85
2019-04-29T11:10:25.802Z,16.95
2019-04-29T11:12:54.775Z,16.50
2019-04-29T11:15:28.744Z,15.15
2019-04-29T11:17:59.169Z,15.60
2019-04-29T11:20:26.710Z,16.93
2019-04-29T11:23:14.972Z,17.82
2019-04-29T11:25:57.236Z,18.30
2019-04-29T11:28:26.194Z,23.87
2019-04-29T11:30:54.979Z,18.67
2019-04-29T11:33:41.729Z,17.32
2019-04-29T11:36:12.157Z,15.78
2019-04-29T11:38:41.108Z,15.95
2019-04-29T11:41:11.736Z,18.00
2019-04-29T11:43:40.620Z,17.82
2019-04-29T11:46:09.993Z,18.12
2019-04-29T11:48:39.964Z,17.75
2019-04-29T11:51:10.286Z,17.87
2019-04-29T11:53:38.993Z,17.15
2019-04-29T11:56:07.753Z,16.00
2019-04-29T11:58:38.033Z,14.75
2019-04-29T12:01:37.768Z,15.83
2019-04-29T12:03:58.661Z,15.15
2019-04-29T12:06:27.978Z,13.98
2019-04-29T12:08:57.775Z,13.95
2019-04-29T12:11:28.173Z,15.03
2019-04-29T12:14:04.693Z,14.73
2019-04-29T12:16:40.836Z,15.10
2019-04-29T12:19:21.289Z,15.38
2019-04-29T12:21:50.705Z,14.10
2019-04-29T12:24:19.539Z,23.40
2019-04-29T12:26:48.178Z,16.48
2019-04-29T12:29:18.146Z,14.63
2019-04-29T12:32:05.177Z,16.57
2019-04-29T12:34:41.803Z,15.60
2019-04-29T12:37:15.052Z,14.83
2019-04-29T12:39:51.057Z,12.95
2019-04-29T12:42:21.438Z,13.32
2019-04-29T12:45:00.790Z,17.30
2019-04-29T12:47:34.122Z,13.50
2019-04-29T12:50:02.936Z,15.60
2019-04-29T12:52:31.565Z,13.25
2019-04-29T12:55:08.505Z,12.03
2019-04-29T12:57:30.670Z,11.22
2019-04-29T12:59:59.373Z,11.08
2019-04-29T13:02:32.359Z,12.43
2019-04-29T13:05:05.673Z,7.33
2019-04-29T13:07:43.102Z,19.75
2019-04-29T13:10:16.741Z,25.52
2019-04-29T13:12:46.185Z,8.35
2019-04-29T13:15:17.246Z,8.40
2019-04-29T13:18:03.563Z,13.88
2019-04-29T13:20:27.054Z,23.42
2019-04-29T13:23:00.991Z,13.18
2019-04-29T13:25:26.897Z,49.05
2019-04-29T13:28:03.718Z,20.62
2019-04-29T13:30:26.202Z,11.35
2019-04-29T13:32:54.859Z,10.10
2019-04-29T13:35:23.607Z,9.50
2019-04-29T13:37:52.314Z,10.28
2019-04-29T13:40:21.478Z,9.40
2019-04-29T13:42:51.028Z,9.75
2019-04-29T13:45:25.516Z,10.13
2019-04-29T13:48:01.838Z,10.50
2019-04-29T13:50:39.401Z,7.65
2019-04-29T13:53:01.262Z,7.87
2019-04-29T13:55:47.234Z,11.97
2019-04-29T13:58:00.270Z,8.50
2019-04-29T14:00:39.234Z,8.50
2019-04-29T14:03:11.560Z,10.28
2019-04-29T14:05:41.678Z,9.43
2019-04-29T14:08:10.325Z,9.78
2019-04-29T14:10:38.953Z,10.18
2019-04-29T14:13:13.310Z,14.87
2019-04-29T14:15:40.312Z,11.68
2019-04-29T14:18:11.615Z,11.12
2019-04-29T14:20:38.708Z,11.40
2019-04-29T14:23:07.357Z,12.13
2019-04-29T14:25:36.097Z,12.63
2019-04-29T14:28:04.876Z,12.10
2019-04-29T14:30:38.938Z,14.40
2019-04-29T14:33:04.147Z,13.58
2019-04-29T14:35:43.665Z,14.80
2019-04-29T14:38:10.606Z,13.78
2019-04-29T14:40:42.741Z,14.15
2019-04-29T14:43:31.646Z,16.35
2019-04-29T14:45:59.615Z,17.10
2019-04-29T14:48:42.084Z,16.80
2019-04-29T14:53:31.626Z,18.67
2019-04-29T14:56:00.346Z,17.00
2019-04-29T14:58:29.171Z,19.73
2019-04-29T15:01:03.322Z,21.82
2019-04-29T15:03:50.502Z,18.00
2019-04-29T15:06:19.196Z,12.58
2019-04-29T15:08:47.810Z,13.38
2019-04-29T15:11:30.642Z,13.45
2019-04-29T15:13:49.164Z,14.05
2019-04-29T15:16:22.140Z,16.67
2019-04-29T15:18:54.864Z,18.35
2019-04-29T15:21:32.340Z,18.60
2019-04-29T15:23:55.432Z,18.80
2019-04-29T15:26:24.069Z,19.60
2019-04-29T15:28:52.697Z,20.77
2019-04-29T15:31:22.392Z,23.12
2019-04-29T15:33:51.002Z,24.75
2019-04-29T15:36:19.785Z,29.75
2019-04-29T15:39:07.719Z,27.55
2019-04-29T15:41:19.039Z,30.37
2019-04-29T15:43:48.378Z,29.67
2019-04-29T15:46:17.546Z,32.70
2019-04-29T15:48:47.198Z,29.67
2019-04-29T15:51:15.891Z,29.05
2019-04-29T15:53:44.674Z,30.43
2019-04-29T15:56:28.363Z,36.93
2019-04-29T15:58:43.789Z,34.53
2019-04-29T16:01:17.364Z,33.50
2019-04-29T16:03:42.722Z,33.75
2019-04-29T16:06:21.649Z,36.98
2019-04-29T16:08:50.665Z,34.80
2019-04-29T16:11:20.944Z,30.62
2019-04-29T16:14:08.105Z,31.68
2019-04-29T16:16:19.918Z,30.10
2019-04-29T16:18:48.528Z,30.25
2019-04-29T16:21:17.166Z,28.62
2019-04-29T16:23:45.768Z,28.27
2019-04-29T16:26:15.392Z,26.95
2019-04-29T16:28:44.078Z,24.95
2019-04-29T16:31:14.388Z,24.35
2019-04-29T16:33:47.308Z,23.67
2019-04-29T16:36:13.381Z,23.25
2019-04-29T16:38:46.398Z,23.50
2019-04-29T16:41:19.436Z,22.85
2019-04-29T16:43:49.131Z,22.75
2019-04-29T16:46:24.281Z,23.73
2019-04-29T16:48:49.733Z,23.42
2019-04-29T16:51:18.483Z,21.35
2019-04-29T16:53:47.210Z,21.10
2019-04-29T16:56:16.536Z,22.90
2019-04-29T16:58:45.465Z,22.93
2019-04-29T17:01:14.493Z,23.32
2019-04-29T17:03:43.413Z,25.95
2019-04-29T17:06:13.583Z,23.73
2019-04-29T17:09:02.912Z,22.65
2019-04-29T17:11:33.852Z,26.70
2019-04-29T17:14:03.514Z,30.17
2019-04-29T17:16:32.998Z,24.45
2019-04-29T17:19:01.677Z,23.15
2019-04-29T17:21:30.536Z,22.82
2019-04-29T17:23:59.243Z,22.95
2019-04-29T17:26:32.461Z,23.20
2019-04-29T17:29:11.510Z,21.85
2019-04-29T17:31:55.946Z,24.87
2019-04-29T17:36:58.505Z,22.52
2019-04-29T17:39:27.915Z,24.12
2019-04-29T17:41:56.617Z,22.20
2019-04-29T17:44:41.785Z,23.45
2019-04-29T17:47:15.028Z,21.35
2019-04-29T17:49:45.390Z,19.35
2019-04-29T17:52:15.838Z,18.92
2019-04-29T17:54:50.398Z,19.77
2019-04-29T17:57:31.272Z,20.82
2019-04-29T18:00:06.968Z,20.12
2019-04-29T18:02:39.425Z,20.75
2019-04-29T18:05:12.812Z,19.92
2019-04-29T18:07:51.719Z,22.00
2019-04-29T18:10:29.521Z,19.65
2019-04-29T18:12:57.937Z,19.48
2019-04-29T18:15:28.192Z,20.75
2019-04-29T18:18:00.358Z,21.40
2019-04-29T18:20:47.190Z,20.15
2019-04-29T18:23:27.471Z,36.42
2019-04-29T18:26:09.967Z,22.17
2019-04-29T18:28:38.950Z,26.05
2019-04-29T18:31:09.268Z,23.77
2019-04-29T18:33:37.913Z,25.57
2019-04-29T18:36:07.161Z,23.38
2019-04-29T18:38:36.073Z,23.00
2019-04-29T18:41:04.762Z,25.62
2019-04-29T18:43:35.392Z,21.68
2019-04-29T18:46:06.291Z,22.58
2019-04-29T18:48:35.385Z,23.30
2019-04-29T18:51:05.709Z,23.10
2019-04-29T18:53:35.409Z,23.92
2019-04-29T18:56:05.257Z,22.73
2019-04-29T18:58:53.346Z,23.70
2019-04-29T19:01:24.122Z,24.37
2019-04-29T19:04:16.270Z,25.40
2019-04-29T19:06:40.722Z,24.23
2019-04-29T19:09:17.887Z,22.65
2019-04-29T19:11:39.989Z,24.25
2019-04-29T19:14:08.711Z,24.05
2019-04-29T19:16:39.347Z,24.63
2019-04-29T19:19:07.725Z,29.82
2019-04-29T19:21:36.336Z,23.73
2019-04-29T19:24:05.254Z,25.27
2019-04-29T19:26:35.012Z,23.77
2019-04-29T19:29:06.280Z,22.15
2019-04-29T19:31:43.573Z,27.65
2019-04-29T19:34:05.498Z,24.92
2019-04-29T19:36:37.090Z,22.80
2019-04-29T19:39:07.220Z,22.67
2019-04-29T19:41:35.980Z,22.55
2019-04-29T19:44:05.799Z,22.15
2019-04-29T19:46:38.446Z,23.18
2019-04-29T19:49:09.838Z,21.80
2019-04-29T19:51:39.311Z,22.02
2019-04-29T19:54:06.598Z,22.67
2019-04-29T19:56:36.286Z,26.23
2019-04-29T19:59:11.865Z,24.67
2019-04-29T20:01:37.936Z,23.02
2019-04-29T20:04:22.195Z,22.52
2019-04-29T20:06:48.148Z,22.80
2019-04-29T20:09:22.638Z,21.45
2019-04-29T20:11:49.883Z,21.62
2019-04-29T20:14:25.359Z,23.35
2019-04-29T20:17:12.723Z,23.57
2019-04-29T20:19:43.124Z,24.85
2019-04-29T20:22:13.274Z,25.60
2019-04-29T20:24:42.858Z,24.82
2019-04-29T20:27:13.493Z,23.55
2019-04-29T20:29:42.499Z,38.15
2019-04-29T20:32:11.596Z,26.85
2019-04-29T20:34:40.564Z,26.25
2019-04-29T20:37:15.172Z,25.32
2019-04-29T20:39:40.814Z,24.57
2019-04-29T20:42:10.594Z,24.67
2019-04-29T20:44:44.714Z,26.85
2019-04-29T20:47:19.117Z,27.50
2019-04-29T20:49:40.431Z,27.58
2019-04-29T20:52:22.003Z,26.20
2019-04-29T20:54:57.490Z,27.87
2019-04-29T20:57:22.150Z,29.63
2019-04-29T20:59:51.432Z,27.20
2019-04-29T21:02:31.465Z,27.48
2019-04-29T21:04:50.714Z,27.50
2019-04-29T21:07:23.852Z,28.73
2019-04-29T21:09:49.928Z,27.22
2019-04-29T21:12:20.658Z,25.02
2019-04-29T21:14:51.013Z,26.62
2019-04-29T21:17:28.815Z,27.32
2019-04-29T21:19:50.224Z,28.77
2019-04-29T21:22:23.477Z,26.90
2019-04-29T21:24:49.499Z,27.15
2019-04-29T21:27:22.578Z,27.13
2019-04-29T21:29:49.916Z,29.95
2019-04-29T21:32:20.366Z,30.37
2019-04-29T21:34:50.677Z,28.83
2019-04-29T21:37:20.925Z,29.82
2019-04-29T21:39:57.373Z,29.07
2019-04-29T21:42:35.371Z,29.67
2019-04-29T21:45:08.727Z,30.20
2019-04-29T21:47:42.708Z,33.70
2019-04-29T21:50:07.256Z,32.40
2019-04-29T21:52:35.861Z,35.40
2019-04-29T21:55:05.561Z,37.40
2019-04-29T21:57:34.167Z,35.38
2019-04-29T22:00:03.324Z,37.23
2019-04-29T22:02:32.052Z,37.48
2019-04-29T22:05:00.680Z,39.10
2019-04-29T22:07:30.415Z,38.23
2019-04-29T22:09:59.188Z,37.80
2019-04-29T22:12:28.217Z,36.95
2019-04-29T22:14:59.399Z,40.15
2019-04-29T22:17:32.881Z,36.70
2019-04-29T22:20:04.221Z,36.75
2019-04-29T22:22:30.684Z,35.95
2019-04-29T22:25:05.926Z,36.13
2019-04-29T22:27:34.260Z,37.25
2019-04-29T22:30:00.476Z,35.58
2019-04-29T22:32:29.092Z,36.45
2019-04-29T22:35:01.429Z,34.20
2019-04-29T22:37:29.754Z,33.18
2019-04-29T22:40:02.732Z,35.75
2019-04-29T22:42:30.701Z,34.08
2019-04-29T22:45:00.663Z,31.73
2019-04-29T22:47:29.727Z,30.68
2019-04-29T22:49:58.702Z,31.23
2019-04-29T22:52:29.820Z,32.35
2019-04-29T22:55:01.583Z,31.85
2019-04-29T22:57:31.661Z,31.97
2019-04-29T22:59:59.720Z,31.05
2019-04-29T23:02:29.860Z,30.97
2019-04-29T23:04:58.473Z,30.95
2019-04-29T23:07:27.270Z,29.65
2019-04-29T23:09:57.603Z,32.53
2019-04-29T23:12:26.157Z,29.82
2019-04-29T23:14:56.551Z,29.35
2019-04-29T23:17:25.504Z,29.23
2019-04-29T23:19:57.044Z,29.25
2019-04-29T23:22:36.595Z,29.35
2019-04-29T23:25:08.164Z,29.07
2019-04-29T23:27:36.870Z,29.65
2019-04-29T23:30:07.706Z,28.98
2019-04-29T23:32:39.383Z,30.95
2019-04-29T23:35:09.754Z,30.10
2019-04-29T23:37:39.625Z,28.47
2019-04-29T23:40:09.300Z,28.90
2019-04-29T23:42:37.928Z,27.80
2019-04-29T23:45:08.174Z,30.00
2019-04-29T23:47:36.874Z,31.93
2019-04-29T23:50:05.966Z,28.30
2019-04-29T23:52:35.916Z,27.65
2019-04-29T23:55:07.728Z,28.10
2019-04-29T23:57:45.978Z,28.50
